Time;durP1;ratioP1;P1;durP2;ratioP2;P2;SDS_P1;SDS_P2;PMS_P1;PMS_P2;Temp;Humidity;BMP_temperature;BMP_pressure;BME280_temperature;BME280_humidity;BME280_pressure;Samples;Min_cycle;Max_cycle;Signal;HPM_P1;HPM_P2
2021/01/30 00:01:03;;;;;;;41.15;26.48;;;;;;;1.65;82.22;98167.41;2925376;81;21571;-60
2021/01/30 00:09:17;;;;;;;40.12;24.30;;;;;;;1.43;82.30;98152.06;2922425;81;21132;-61
2021/01/30 00:13:20;;;;;;;37.38;26.42;;;;;;;1.52;82.52;98169.67;2922316;81;21121;-61
2021/01/30 00:17:24;;;;;;;45.15;27.90;;;;;;;1.47;82.75;98157.42;2922403;81;21180;-60
2021/01/30 00:21:27;;;;;;;44.60;26.93;;;;;;;1.48;83.07;98151.22;2922638;81;21169;-60
2021/01/30 00:25:33;;;;;;;37.40;29.60;;;;;;;1.45;82.92;98152.78;2922389;81;21153;-60
2021/01/30 00:29:37;;;;;;;47.93;26.80;;;;;;;1.49;83.07;98149.45;2922542;81;21173;-60
2021/01/30 00:33:40;;;;;;;44.15;27.17;;;;;;;1.50;82.89;98149.31;2922302;81;21164;-60
2021/01/30 00:37:43;;;;;;;46.55;27.87;;;;;;;1.52;82.95;98150.02;2922765;81;21165;-60
2021/01/30 00:41:46;;;;;;;38.60;26.85;;;;;;;1.53;82.95;98147.75;2902359;81;21169;-61
2021/01/30 00:45:49;;;;;;;37.05;25.52;;;;;;;1.60;83.05;98149.91;2893950;82;21157;-60
2021/01/30 00:49:52;;;;;;;42.35;25.50;;;;;;;1.66;83.04;98149.41;2893924;82;21156;-60
2021/01/30 00:53:55;;;;;;;42.17;28.32;;;;;;;1.70;82.83;98142.97;2893598;82;21146;-60
2021/01/30 00:57:58;;;;;;;39.95;29.30;;;;;;;1.73;82.75;98144.52;2893867;82;21134;-61
2021/01/30 01:02:02;;;;;;;47.73;25.05;;;;;;;1.75;82.79;98142.61;2894272;82;21126;-60
2021/01/30 01:06:06;;;;;;;45.43;30.30;;;;;;;1.76;82.60;98139.03;2894277;82;21146;-61
2021/01/30 01:10:11;;;;;;;47.10;25.75;;;;;;;1.73;82.59;98136.66;2893888;82;21134;-60
2021/01/30 01:14:15;;;;;;;46.08;26.40;;;;;;;1.60;82.83;98115.84;2894066;82;21181;-61
2021/01/30 01:18:18;;;;;;;52.00;29.72;;;;;;;1.73;82.77;98128.80;2893823;82;21118;-61
2021/01/30 01:22:21;;;;;;;42.88;27.55;;;;;;;1.51;82.68;98085.95;2893878;82;21141;-60
2021/01/30 01:26:24;;;;;;;51.63;30.45;;;;;;;1.64;82.99;98115.95;2893963;82;21166;-60
2021/01/30 01:30:27;;;;;;;50.28;31.00;;;;;;;1.58;83.10;98123.00;2893891;82;22138;-60
2021/01/30 01:34:31;;;;;;;44.80;30.17;;;;;;;1.65;83.31;98110.56;2894521;82;21150;-61
2021/01/30 01:38:34;;;;;;;53.42;32.73;;;;;;;1.65;83.31;98110.56;2893812;82;21170;-60
2021/01/30 01:42:37;;;;;;;45.50;31.48;;;;;;;1.65;83.44;98105.81;2903598;81;21152;-61
2021/01/30 01:46:40;;;;;;;47.03;31.82;;;;;;;1.65;83.44;98105.81;2906329;81;21118;-60
2021/01/30 01:50:50;;;;;;;48.25;29.32;;;;;;;1.67;83.60;98106.06;2906269;81;21122;-60
2021/01/30 01:55:00;;;;;;;48.73;31.52;;;;;;;1.68;83.56;98100.32;2906247;81;21149;-61
2021/01/30 01:59:11;;;;;;;52.50;30.68;;;;;;;1.68;83.69;98087.22;2906304;81;21149;-61
2021/01/30 02:03:15;;;;;;;49.60;28.52;;;;;;;1.56;83.61;98075.44;2906752;81;21185;-61
2021/01/30 02:07:19;;;;;;;43.15;30.60;;;;;;;1.39;83.87;98056.33;2906468;81;21122;-61
2021/01/30 02:11:22;;;;;;;44.65;27.30;;;;;;;1.43;84.13;98067.73;2906487;81;21130;-61
2021/01/30 02:15:25;;;;;;;49.88;30.40;;;;;;;1.43;84.13;98067.73;2895198;81;21143;-61
2021/01/30 02:20:01;;;;;;;50.35;32.63;;;;;;;1.40;84.50;98065.86;2859733;82;21091;-61
2021/01/30 02:24:33;;;;;;;48.92;29.95;;;;;;;1.46;84.55;98077.15;2859713;82;21159;-61
2021/01/30 02:29:04;;;;;;;42.98;30.35;;;;;;;1.57;84.59;98068.42;2859548;83;21155;-61
2021/01/30 02:33:38;;;;;;;51.25;31.33;;;;;;;1.64;84.22;98060.91;2859711;82;21151;-61
2021/01/30 02:38:04;;;;;;;44.58;29.50;;;;;;;1.53;83.93;98053.42;2859642;82;21135;-61
2021/01/30 02:42:14;;;;;;;52.70;32.35;;;;;;;1.47;84.32;98056.54;2856759;82;21192;-61
2021/01/30 02:46:25;;;;;;;51.25;31.35;;;;;;;1.52;84.47;98053.06;2855628;83;21151;-62
2021/01/30 02:50:48;;;;;;;49.10;31.75;;;;;;;1.61;84.51;98034.95;2855623;82;21166;-61
2021/01/30 02:54:55;;;;;;;50.50;31.00;;;;;;;1.62;84.27;98032.69;2855689;82;21167;-61
2021/01/30 02:59:14;;;;;;;50.50;33.65;;;;;;;1.49;84.21;98006.64;2855640;83;21158;-60
2021/01/30 03:03:17;;;;;;;42.60;30.40;;;;;;;1.61;84.29;98025.28;2855627;82;21091;-61
2021/01/30 03:07:48;;;;;;;45.60;28.42;;;;;;;1.55;83.78;98021.37;2855648;82;21147;-61
2021/01/30 03:12:07;;;;;;;36.42;27.73;;;;;;;1.54;83.93;98030.68;2855055;83;21103;-61
2021/01/30 03:16:17;;;;;;;43.63;22.93;;;;;;;1.59;83.97;98019.34;2855637;82;21151;-61
2021/01/30 03:20:22;;;;;;;43.87;29.18;;;;;;;1.51;83.52;98017.83;2855581;83;21147;-61
2021/01/30 03:24:26;;;;;;;40.63;26.50;;;;;;;1.43;83.78;98004.03;2855414;82;21175;-61
2021/01/30 03:28:29;;;;;;;41.30;25.82;;;;;;;1.36;83.81;97995.83;2855450;82;21155;-61
2021/01/30 03:32:32;;;;;;;56.15;29.85;;;;;;;1.29;83.85;98002.53;2855616;83;21155;-62
2021/01/30 03:36:37;;;;;;;37.35;25.62;;;;;;;1.22;84.21;98003.50;2855268;82;21123;-60
2021/01/30 03:40:40;;;;;;;49.25;29.80;;;;;;;1.23;84.27;98001.23;2853952;82;21124;-60
2021/01/30 03:44:43;;;;;;;44.33;29.95;;;;;;;1.30;84.27;98004.20;2846210;83;21139;-61
2021/01/30 03:48:46;;;;;;;57.03;34.25;;;;;;;1.36;84.26;98015.48;2846135;83;21135;-61
2021/01/30 03:52:50;;;;;;;60.05;35.73;;;;;;;1.39;84.04;98009.99;2846387;83;21140;-62
2021/01/30 03:56:53;;;;;;;58.05;33.25;;;;;;;1.46;83.72;98008.17;2845965;83;21116;-61
2021/01/30 04:00:55;;;;;;;53.58;34.40;;;;;;;1.48;83.46;98012.34;2846046;83;21124;-62
2021/01/30 04:04:58;;;;;;;51.85;31.25;;;;;;;1.47;83.11;98004.59;2845959;83;21143;-61
2021/01/30 04:09:03;;;;;;;52.70;32.67;;;;;;;1.45;82.97;98007.83;2846261;83;21100;-60
2021/01/30 04:13:09;;;;;;;36.65;26.57;;;;;;;1.45;83.10;98008.67;2846053;83;21132;-61
2021/01/30 04:17:13;;;;;;;33.98;23.62;;;;;;;1.45;82.79;98020.92;2846156;83;22150;-61
2021/01/30 04:21:16;;;;;;;37.15;23.50;;;;;;;1.28;82.97;98004.30;2845907;83;21716;-61
2021/01/30 04:25:22;;;;;;;40.25;23.65;;;;;;;1.28;82.97;98004.30;2846280;83;21132;-61
2021/01/30 04:29:25;;;;;;;31.97;23.22;;;;;;;1.39;82.71;98016.54;2839087;83;21098;-61
2021/01/30 04:33:28;;;;;;;35.30;22.87;;;;;;;1.36;82.76;98019.87;2821578;83;21184;-61
2021/01/30 04:37:30;;;;;;;37.53;23.30;;;;;;;1.27;82.80;98002.64;2821727;84;21160;-61
2021/01/30 04:42:11;;;;;;;38.95;24.52;;;;;;;1.27;82.47;98002.64;2847981;82;21096;-62
2021/01/30 04:46:19;;;;;;;31.00;20.25;;;;;;;1.33;82.34;98018.81;2900099;82;21097;-62
2021/01/30 04:50:50;;;;;;;37.95;24.77;;;;;;;1.25;82.75;98018.97;2899745;82;22198;-62
2021/01/30 04:55:38;;;;;;;40.63;25.17;;;;;;;1.14;83.75;98016.35;2900322;82;21120;-62
2021/01/30 05:00:09;;;;;;;44.93;30.15;;;;;;;1.14;83.75;98016.35;2900889;82;21117;-62
2021/01/30 05:04:22;;;;;;;57.75;34.53;;;;;;;1.10;83.77;98034.11;2900416;82;21172;-61
2021/01/30 05:08:48;;;;;;;53.80;31.12;;;;;;;1.05;83.29;98035.42;2901015;82;21117;-60
2021/01/30 05:18:10;;;;;;;42.80;27.02;;;;;;;0.84;82.75;98042.20;2900011;82;21108;-61
2021/01/30 05:22:16;;;;;;;41.18;23.30;;;;;;;0.64;83.12;98041.14;2900421;82;21149;-61
2021/01/30 05:26:50;;;;;;;30.10;19.10;;;;;;;0.50;83.55;98040.05;2900555;82;21152;-61
2021/01/30 05:31:07;;;;;;;27.15;15.28;;;;;;;0.41;83.70;98037.20;2900645;82;21128;-60
2021/01/30 05:35:44;;;;;;;21.70;12.90;;;;;;;0.33;83.56;98053.11;2884172;82;21563;-61
2021/01/30 05:40:25;;;;;;;20.30;11.90;;;;;;;0.25;83.63;98061.53;2900577;82;21124;-62
2021/01/30 05:45:06;;;;;;;16.75;10.38;;;;;;;0.10;84.22;98042.12;2897168;82;21614;-61
2021/01/30 05:49:17;;;;;;;15.35;10.88;;;;;;;0.18;83.84;98086.00;2897138;82;21174;-60
2021/01/30 05:53:23;;;;;;;14.45;7.87;;;;;;;0.22;83.87;98091.84;2897040;82;21148;-61
2021/01/30 05:57:27;;;;;;;15.93;10.00;;;;;;;0.22;83.67;98094.45;2904669;82;21117;-61
2021/01/30 06:01:30;;;;;;;10.38;6.55;;;;;;;0.19;83.89;98099.89;2904718;82;21137;-61
2021/01/30 06:05:52;;;;;;;11.40;7.40;;;;;;;0.18;83.85;98121.75;2904734;82;21496;-61
2021/01/30 06:09:56;;;;;;;15.00;9.63;;;;;;;0.19;84.09;98121.66;2905178;82;21186;-61
2021/01/30 06:14:02;;;;;;;12.13;8.63;;;;;;;0.24;83.89;98144.86;2904829;82;21544;-61
2021/01/30 06:18:33;;;;;;;16.35;10.00;;;;;;;0.27;83.63;98152.47;2902421;81;21106;-61
2021/01/30 06:22:37;;;;;;;18.00;10.03;;;;;;;0.26;83.32;98163.88;2902493;82;21141;-61
2021/01/30 06:26:47;;;;;;;16.35;11.12;;;;;;;0.28;83.32;98177.67;2902318;82;21149;-60
2021/01/30 06:30:51;;;;;;;12.33;9.25;;;;;;;0.28;82.72;98188.14;2902067;82;21212;-60
2021/01/30 06:35:23;;;;;;;23.70;15.88;;;;;;;0.28;82.72;98188.14;2902289;82;21133;-60
2021/01/30 06:39:36;;;;;;;20.23;13.78;;;;;;;0.34;82.92;98211.70;2902130;81;21149;-61
2021/01/30 06:43:46;;;;;;;30.17;17.98;;;;;;;0.35;82.89;98233.81;2916146;81;21120;-61
2021/01/30 06:47:52;;;;;;;38.95;21.35;;;;;;;0.36;82.97;98231.55;2922675;81;21110;-60
2021/01/30 06:52:12;;;;;;;49.57;26.20;;;;;;;0.35;83.04;98241.66;2922735;80;21153;-61
2021/01/30 06:56:28;;;;;;;54.08;30.68;;;;;;;0.34;82.79;98266.14;2922696;81;21547;-61
2021/01/30 07:00:36;;;;;;;50.28;29.57;;;;;;;0.36;82.93;98268.66;2922020;81;21294;-61
2021/01/30 07:05:08;;;;;;;42.90;26.35;;;;;;;0.36;82.87;98261.63;2922506;81;21579;-61
2021/01/30 07:09:36;;;;;;;39.08;24.75;;;;;;;0.36;82.87;98261.63;2922215;81;21164;-60
2021/01/30 07:14:03;;;;;;;39.48;23.95;;;;;;;0.51;82.32;98279.80;2922678;81;21097;-61
2021/01/30 07:18:27;;;;;;;52.93;31.07;;;;;;;0.52;82.40;98297.16;2922215;81;21144;-61
2021/01/30 07:22:35;;;;;;;68.97;37.80;;;;;;;0.55;82.37;98305.62;2922420;81;21121;-59
2021/01/30 07:27:00;;;;;;;55.90;34.95;;;;;;;0.56;82.33;98322.15;2922217;81;21169;-60
2021/01/30 07:31:34;;;;;;;65.00;37.03;;;;;;;0.51;82.03;98334.28;2922602;81;21156;-62
2021/01/30 07:36:05;;;;;;;60.52;36.80;;;;;;;0.41;82.42;98324.94;2922754;81;21160;-61
2021/01/30 07:40:19;;;;;;;64.77;39.00;;;;;;;0.50;82.33;98372.31;2910708;81;21141;-62
2021/01/30 07:44:27;;;;;;;69.85;37.60;;;;;;;0.58;82.58;98388.77;2922586;81;21153;-61
2021/01/30 07:48:38;;;;;;;61.25;34.23;;;;;;;0.58;82.58;98388.77;2921817;81;21157;-61
2021/01/30 07:53:09;;;;;;;64.40;40.58;;;;;;;0.64;82.13;98395.72;2921957;80;21105;-62
2021/01/30 07:58:00;;;;;;;62.15;39.80;;;;;;;0.66;82.13;98406.91;2922476;81;21117;-59
2021/01/30 08:02:17;;;;;;;55.95;35.33;;;;;;;0.64;81.59;98425.81;2922771;81;21113;-60
2021/01/30 08:07:16;;;;;;;63.85;38.23;;;;;;;0.73;81.65;98421.70;2919434;81;21693;-58
2021/01/30 08:11:35;;;;;;;66.02;41.13;;;;;;;0.96;81.70;98434.94;2922228;81;21129;-59
2021/01/30 08:16:00;;;;;;;63.20;38.28;;;;;;;0.94;80.47;98443.38;2922602;81;21145;-62
2021/01/30 08:20:09;;;;;;;49.58;34.10;;;;;;;0.91;80.52;98457.50;2921755;81;21161;-59
2021/01/30 08:24:45;;;;;;;50.95;34.33;;;;;;;0.94;80.64;98473.48;2922139;81;21603;-60
2021/01/30 08:29:10;;;;;;;64.45;36.42;;;;;;;1.11;80.15;98486.67;2922177;81;21161;-61
2021/01/30 08:33:12;;;;;;;62.05;34.63;;;;;;;1.11;80.15;98486.67;2874202;82;21173;-58
2021/01/30 08:37:37;;;;;;;57.05;33.30;;;;;;;1.14;80.37;98499.54;2874416;82;21166;-58
2021/01/30 08:41:45;;;;;;;55.88;31.10;;;;;;;1.14;80.37;98499.54;2907425;81;21118;-58
2021/01/30 08:45:48;;;;;;;53.92;35.52;;;;;;;1.13;79.84;98509.66;2907375;81;21138;-58
2021/01/30 08:50:31;;;;;;;51.80;36.68;;;;;;;1.17;79.96;98521.58;2894058;81;21198;-58
2021/01/30 08:54:43;;;;;;;55.40;34.27;;;;;;;1.24;79.57;98529.37;2857161;83;22365;-58
2021/01/30 08:58:47;;;;;;;49.83;30.92;;;;;;;1.25;79.31;98533.67;2857418;82;21368;-58
2021/01/30 09:02:58;;;;;;;76.47;42.70;;;;;;;1.18;78.95;98548.16;2857438;82;21608;-58
2021/01/30 09:07:01;;;;;;;50.10;34.75;;;;;;;1.46;79.24;98547.48;2857553;82;21153;-58
2021/01/30 09:11:38;;;;;;;47.73;32.63;;;;;;;1.82;78.26;98573.29;2857546;83;21129;-59
2021/01/30 09:15:46;;;;;;;48.83;31.27;;;;;;;1.82;78.26;98573.29;2857166;82;21133;-60
2021/01/30 09:20:03;;;;;;;52.98;34.78;;;;;;;1.94;77.38;98585.13;2856893;82;21161;-58
2021/01/30 09:24:48;;;;;;;47.58;25.08;;;;;;;1.99;77.14;98589.58;2857619;83;21165;-59
2021/01/30 09:29:04;;;;;;;105.97;67.25;;;;;;;1.90;76.29;98603.34;2857085;83;21152;-59
2021/01/30 09:33:24;;;;;;;55.03;34.38;;;;;;;1.90;77.17;98600.72;2857543;82;21157;-61
2021/01/30 09:37:47;;;;;;;98.55;50.50;;;;;;;2.01;76.81;98609.97;2857930;82;21122;-62
2021/01/30 09:41:50;;;;;;;57.98;36.40;;;;;;;2.13;76.80;98612.98;2856935;82;21175;-61
2021/01/30 09:45:53;;;;;;;56.68;29.00;;;;;;;2.08;76.30;98604.63;2857652;83;21181;-61
2021/01/30 09:50:05;;;;;;;57.70;41.37;;;;;;;1.98;75.84;98604.95;2857219;81;21157;-59
2021/01/30 09:54:14;;;;;;;58.25;36.25;;;;;;;1.96;76.72;98612.92;2825180;83;21149;-60
2021/01/30 09:58:21;;;;;;;59.10;38.15;;;;;;;1.96;76.32;98616.86;2809337;84;21177;-60
2021/01/30 10:02:25;;;;;;;89.77;49.15;;;;;;;2.31;77.02;98629.63;2809424;84;21137;-60
2021/01/30 10:06:33;;;;;;;60.65;36.77;;;;;;;2.46;75.27;98628.13;2809019;83;21133;-61
2021/01/30 10:10:36;;;;;;;67.55;39.60;;;;;;;2.36;75.12;98624.90;2809373;84;21177;-61
2021/01/30 10:14:44;;;;;;;54.85;31.77;;;;;;;2.24;74.97;98624.48;2809638;83;21140;-61
2021/01/30 10:19:10;;;;;;;59.05;31.75;;;;;;;2.00;75.23;98637.14;2809375;84;21140;-63
2021/01/30 10:23:13;;;;;;;59.75;34.70;;;;;;;1.77;76.20;98621.76;2809883;84;21145;-62
2021/01/30 10:27:24;;;;;;;47.25;29.57;;;;;;;1.81;76.17;98629.30;2783732;84;21142;-60
2021/01/30 10:31:37;;;;;;;82.95;49.13;;;;;;;1.81;76.17;98629.30;2809633;84;21152;-59
2021/01/30 10:35:50;;;;;;;68.37;43.52;;;;;;;2.05;76.28;98653.38;2809680;84;21145;-63
2021/01/30 10:40:01;;;;;;;108.97;59.00;;;;;;;2.25;75.72;98658.95;2809767;84;21157;-61
2021/01/30 10:44:06;;;;;;;45.70;28.75;;;;;;;2.37;75.75;98655.44;2809735;84;21144;-61
2021/01/30 10:48:12;;;;;;;50.78;27.98;;;;;;;2.46;75.28;98663.11;2810116;84;21124;-60
2021/01/30 10:52:25;;;;;;;32.45;20.55;;;;;;;2.48;75.00;98665.59;2809671;84;21601;-60
2021/01/30 10:56:28;;;;;;;41.25;23.80;;;;;;;2.59;74.80;98676.61;2847348;82;21179;-61
2021/01/30 11:00:31;;;;;;;31.45;19.70;;;;;;;2.65;75.13;98680.93;2851864;83;21160;-61
2021/01/30 11:04:36;;;;;;;33.55;22.62;;;;;;;2.71;74.43;98684.40;2852108;83;21116;-61
2021/01/30 11:08:40;;;;;;;26.85;18.15;;;;;;;2.82;74.58;98689.34;2852211;83;21132;-59
2021/01/30 11:12:43;;;;;;;32.65;19.40;;;;;;;2.92;74.29;98692.92;2851869;83;22172;-60
2021/01/30 11:16:46;;;;;;;28.98;19.55;;;;;;;2.96;74.19;98695.70;2852213;82;21124;-61
2021/01/30 11:20:50;;;;;;;31.17;19.20;;;;;;;3.06;74.32;98700.24;2852085;82;21112;-58
2021/01/30 11:25:09;;;;;;;36.30;21.00;;;;;;;3.12;74.25;98707.64;2852360;82;21437;-61
2021/01/30 11:29:42;;;;;;;24.57;14.47;;;;;;;3.16;74.20;98710.89;2851926;82;21526;-61
2021/01/30 11:33:50;;;;;;;15.85;11.68;;;;;;;3.13;73.37;98714.11;2851784;83;21104;-63
2021/01/30 11:37:56;;;;;;;15.70;11.12;;;;;;;3.18;73.42;98724.28;2851928;83;21068;-61
2021/01/30 11:41:59;;;;;;;17.82;9.60;;;;;;;3.32;73.22;98727.16;2876264;82;21147;-61
2021/01/30 11:46:03;;;;;;;14.53;9.08;;;;;;;3.39;72.08;98734.92;2879731;82;21131;-61
2021/01/30 11:50:08;;;;;;;9.93;6.85;;;;;;;3.29;71.44;98734.79;2879418;82;21120;-59
2021/01/30 11:54:12;;;;;;;9.98;8.00;;;;;;;3.25;71.94;98736.48;2879486;82;21143;-62
2021/01/30 11:58:17;;;;;;;11.70;7.65;;;;;;;3.28;72.42;98735.75;2879298;82;21143;-60
2021/01/30 12:02:36;;;;;;;10.10;7.35;;;;;;;3.29;72.26;98741.36;2879545;82;21095;-61
2021/01/30 12:06:41;;;;;;;12.65;7.03;;;;;;;3.33;71.84;98737.17;2879782;82;21127;-60
2021/01/30 12:10:46;;;;;;;14.00;7.65;;;;;;;3.33;71.46;98745.91;2879449;82;21159;-59
2021/01/30 12:14:49;;;;;;;12.43;6.12;;;;;;;3.33;71.67;98744.60;2879857;82;21142;-60
2021/01/30 12:18:51;;;;;;;5.85;4.08;;;;;;;3.40;71.07;98741.85;2879717;82;21175;-61
2021/01/30 12:22:59;;;;;;;7.33;5.75;;;;;;;3.42;70.12;98739.94;2879080;82;21167;-61
2021/01/30 12:27:03;;;;;;;8.03;5.17;;;;;;;3.50;70.29;98739.34;2879881;82;21127;-59
2021/01/30 12:31:06;;;;;;;26.65;14.25;;;;;;;3.51;70.12;98751.54;2851729;82;21211;-59
2021/01/30 12:35:11;;;;;;;41.90;22.13;;;;;;;3.51;70.87;98761.23;2830895;84;21210;-62
2021/01/30 12:39:14;;;;;;;119.80;59.10;;;;;;;3.42;70.45;98760.97;2831469;84;21174;-61
2021/01/30 12:43:22;;;;;;;73.57;42.53;;;;;;;3.38;70.74;98763.97;2830634;84;21142;-59
2021/01/30 12:47:28;;;;;;;37.67;20.68;;;;;;;3.33;71.02;98767.41;2830624;84;21123;-61
2021/01/30 12:51:32;;;;;;;31.95;18.57;;;;;;;3.30;71.88;98776.38;2829428;83;21099;-61
2021/01/30 12:55:39;;;;;;;12.43;9.88;;;;;;;3.19;71.96;98779.83;2830546;84;21154;-60
2021/01/30 12:59:43;;;;;;;25.72;13.18;;;;;;;3.08;71.97;98781.95;2830529;84;21139;-61
2021/01/30 13:03:46;;;;;;;24.25;11.68;;;;;;;3.04;72.03;98787.53;2831121;83;21190;-61
2021/01/30 13:07:49;;;;;;;25.70;12.82;;;;;;;2.97;72.29;98781.44;2831409;84;21127;-63
2021/01/30 13:11:53;;;;;;;21.42;14.05;;;;;;;2.94;72.42;98788.70;2830511;84;21142;-61
2021/01/30 13:15:56;;;;;;;18.48;12.13;;;;;;;2.99;73.00;98791.35;2830783;84;21162;-62
2021/01/30 13:19:59;;;;;;;53.85;23.65;;;;;;;3.03;72.77;98788.00;2830776;84;21115;-65
2021/01/30 13:24:03;;;;;;;8.93;6.53;;;;;;;3.11;72.11;98795.31;2830710;84;21155;-62
2021/01/30 13:28:09;;;;;;;12.43;8.68;;;;;;;3.13;72.09;98803.45;2830537;84;21545;-60
2021/01/30 13:32:14;;;;;;;8.35;5.60;;;;;;;3.05;71.86;98810.23;2830838;83;21561;-62
2021/01/30 13:36:18;;;;;;;11.00;6.17;;;;;;;3.02;72.27;98815.71;2830661;83;21202;-64
2021/01/30 13:40:21;;;;;;;7.60;5.12;;;;;;;3.02;72.06;98819.66;2830639;84;21170;-62
2021/01/30 13:44:25;;;;;;;7.60;4.40;;;;;;;3.07;72.36;98824.08;2830671;84;21194;-64
2021/01/30 13:48:28;;;;;;;6.53;4.60;;;;;;;3.17;71.34;98827.72;2830776;84;21159;-62
2021/01/30 13:52:31;;;;;;;7.70;4.87;;;;;;;3.23;70.47;98826.40;2830558;84;21170;-62
2021/01/30 13:56:39;;;;;;;10.98;6.37;;;;;;;3.22;70.83;98833.46;2831191;82;21178;-63
2021/01/30 14:00:42;;;;;;;8.68;5.85;;;;;;;3.02;71.35;98830.16;2830776;83;21170;-64
2021/01/30 14:04:45;;;;;;;9.70;7.67;;;;;;;2.76;72.59;98840.80;2830557;83;21653;-63
2021/01/30 14:08:48;;;;;;;9.45;6.78;;;;;;;2.64;73.70;98839.41;2830805;84;21158;-62
2021/01/30 14:12:51;;;;;;;18.23;12.58;;;;;;;2.58;74.11;98845.11;2830685;83;21095;-64
2021/01/30 14:16:54;;;;;;;23.95;14.20;;;;;;;2.61;74.90;98845.34;2831022;82;21182;-62
2021/01/30 14:20:57;;;;;;;19.62;13.75;;;;;;;2.71;74.67;98847.20;2830956;84;21155;-63
2021/01/30 14:25:05;;;;;;;15.30;10.93;;;;;;;2.79;74.25;98852.39;2831197;84;21195;-63
2021/01/30 14:29:07;;;;;;;25.45;11.90;;;;;;;2.82;74.23;98858.73;2830871;84;21099;-64
2021/01/30 14:33:10;;;;;;;35.52;19.90;;;;;;;2.80;74.58;98869.83;2830693;84;21201;-64
2021/01/30 14:37:13;;;;;;;19.95;9.03;;;;;;;2.68;75.63;98868.44;2830735;84;21170;-67
2021/01/30 14:41:22;;;;;;;10.60;7.28;;;;;;;2.62;76.55;98868.88;2821519;84;21198;-64
2021/01/30 14:45:26;;;;;;;13.55;8.30;;;;;;;2.61;76.77;98873.77;2809322;84;21163;-66
2021/01/30 14:49:30;;;;;;;;;;;;;;;2.66;76.90;98872.95;2812128;84;21096;-64
2021/01/30 14:53:33;;;;;;;20.90;14.78;;;;;;;2.61;76.57;98869.83;2809378;84;20876;-64
2021/01/30 14:57:37;;;;;;;19.82;12.88;;;;;;;2.53;76.65;98862.96;2809586;84;21127;-63
2021/01/30 15:01:43;;;;;;;29.80;17.98;;;;;;;2.55;76.98;98866.31;2809261;84;21151;-62
2021/01/30 15:05:46;;;;;;;28.75;16.73;;;;;;;2.47;76.63;98871.28;2809541;84;21171;-63
2021/01/30 15:09:50;;;;;;;32.83;21.05;;;;;;;2.42;77.14;98879.47;2809574;84;21139;-63
2021/01/30 15:13:53;;;;;;;30.57;19.92;;;;;;;2.41;77.20;98881.27;2809783;84;21139;-63
2021/01/30 15:17:56;;;;;;;26.37;15.65;;;;;;;2.38;77.03;98888.52;2822584;83;21123;-63
2021/01/30 15:21:59;;;;;;;17.57;11.33;;;;;;;2.35;77.04;98880.86;2858284;82;21870;-65
2021/01/30 15:26:03;;;;;;;27.30;13.65;;;;;;;2.35;76.93;98883.00;2858156;82;21566;-63
2021/01/30 15:30:09;;;;;;;26.90;18.50;;;;;;;2.23;76.47;98883.88;2826767;82;21147;-64
2021/01/30 15:34:11;;;;;;;28.57;18.07;;;;;;;2.17;76.66;98880.37;2809441;83;21153;-63
2021/01/30 15:38:16;;;;;;;21.82;13.80;;;;;;;2.18;76.25;98891.23;2809373;84;21124;-63
2021/01/30 15:42:18;;;;;;;14.68;8.95;;;;;;;2.06;75.62;98891.13;2822699;84;21148;-65
2021/01/30 15:46:22;;;;;;;13.75;8.88;;;;;;;1.72;75.34;98903.91;2830471;84;21160;-63
2021/01/30 15:50:25;;;;;;;26.52;12.00;;;;;;;1.37;75.26;98913.64;2830726;84;21148;-65
2021/01/30 15:54:28;;;;;;;20.12;12.25;;;;;;;1.13;75.12;98918.23;2830552;84;21116;-62
2021/01/30 15:58:31;;;;;;;16.57;9.78;;;;;;;0.96;75.50;98923.27;2830770;84;21172;-63
2021/01/30 16:02:34;;;;;;;19.73;12.50;;;;;;;0.67;76.66;98904.54;2830647;83;21151;-63
2021/01/30 16:06:39;;;;;;;21.12;12.23;;;;;;;0.75;77.82;98932.86;2836985;82;21196;-63
2021/01/30 16:10:42;;;;;;;19.30;12.30;;;;;;;0.77;78.55;98926.20;2865131;82;21115;-64
2021/01/30 16:14:46;;;;;;;25.68;13.62;;;;;;;0.84;78.83;98935.36;2879452;82;21172;-62
2021/01/30 16:18:50;;;;;;;30.10;18.00;;;;;;;0.90;78.87;98934.97;2879493;82;21184;-62
2021/01/30 16:22:53;;;;;;;33.18;18.52;;;;;;;0.84;79.25;98927.51;2879550;82;21168;-63
2021/01/30 16:27:03;;;;;;;25.37;15.72;;;;;;;0.84;79.25;98927.51;2879365;82;21128;-66
2021/01/30 16:31:02;;;;;;;27.30;13.38;;;;;;;1.01;79.12;98946.55;2878275;82;21209;-62
2021/01/30 16:35:07;;;;;;;26.95;17.12;;;;;;;1.09;79.07;98947.73;2879245;82;21737;-62
2021/01/30 16:39:10;;;;;;;32.50;17.27;;;;;;;1.16;79.21;98949.47;2879000;82;21149;-64
2021/01/30 16:43:13;;;;;;;23.42;14.55;;;;;;;1.44;78.93;98959.48;2879345;82;21181;-62
2021/01/30 16:47:18;;;;;;;32.40;17.35;;;;;;;1.44;78.93;98959.48;2878955;82;21623;-62
2021/01/30 16:51:21;;;;;;;25.72;18.65;;;;;;;1.53;77.92;98947.56;2878993;81;21120;-60
2021/01/30 16:55:25;;;;;;;24.57;14.63;;;;;;;1.56;77.58;98959.98;2879274;82;21160;-57
2021/01/30 16:59:29;;;;;;;26.20;15.80;;;;;;;1.40;77.12;98940.50;2855277;82;21164;-62
2021/01/30 17:03:32;;;;;;;29.55;18.57;;;;;;;1.43;76.38;98976.16;2830402;84;21144;-63
2021/01/30 17:07:35;;;;;;;33.05;17.90;;;;;;;1.24;76.76;98983.03;2830807;84;21152;-63
2021/01/30 17:11:38;;;;;;;32.35;18.92;;;;;;;1.19;77.04;98993.83;2830500;84;21136;-62
2021/01/30 17:15:46;;;;;;;50.85;28.25;;;;;;;1.16;77.03;98999.23;2830655;84;21124;-62
2021/01/30 17:19:49;;;;;;;81.35;45.80;;;;;;;1.16;77.03;98999.23;2830899;84;21128;-62
2021/01/30 17:23:52;;;;;;;58.17;31.17;;;;;;;1.14;76.54;99010.28;2830630;84;21148;-64
2021/01/30 17:27:55;;;;;;;58.33;31.27;;;;;;;1.13;76.00;99003.37;2830621;84;21140;-63
2021/01/30 17:32:01;;;;;;;41.92;24.47;;;;;;;1.10;75.37;99008.80;2830807;84;21168;-61
2021/01/30 17:36:07;;;;;;;39.15;21.82;;;;;;;1.03;75.33;99009.66;2830714;84;21156;-61
2021/01/30 17:40:12;;;;;;;50.85;30.32;;;;;;;0.99;75.45;99014.27;2841855;82;21160;-63
2021/01/30 17:44:16;;;;;;;98.47;54.93;;;;;;;0.94;75.92;99005.01;2834994;82;29956;-62
2021/01/30 17:48:19;;;;;;;25.23;16.20;;;;;;;0.91;76.56;99019.61;2905808;81;21117;-62
2021/01/30 17:52:23;;;;;;;20.23;13.68;;;;;;;1.01;76.84;99021.19;2854530;83;21616;-62
2021/01/30 17:56:26;;;;;;;35.30;18.42;;;;;;;1.11;76.37;99029.67;2873418;81;21141;-63
2021/01/30 18:00:37;;;;;;;40.63;22.80;;;;;;;1.13;76.82;99030.88;2855965;83;21133;-62
2021/01/30 18:04:40;;;;;;;63.35;34.67;;;;;;;1.41;77.59;99033.89;2855829;83;21136;-64
2021/01/30 18:08:46;;;;;;;25.08;18.07;;;;;;;1.41;77.59;99033.89;2855974;83;21132;-64
2021/01/30 18:12:49;;;;;;;18.48;13.43;;;;;;;1.59;77.12;99038.89;2856145;83;21152;-65
2021/01/30 18:16:52;;;;;;;23.90;15.00;;;;;;;1.70;76.73;99036.43;2855971;81;22251;-64
2021/01/30 18:20:55;;;;;;;19.87;14.43;;;;;;;1.76;76.35;99039.09;2856096;83;21602;-65
2021/01/30 18:24:58;;;;;;;32.70;21.48;;;;;;;1.89;76.13;99030.44;2855985;83;21161;-63
2021/01/30 18:29:04;;;;;;;27.48;15.75;;;;;;;1.92;75.98;99038.09;2856013;83;21120;-62
2021/01/30 18:33:22;;;;;;;20.23;11.97;;;;;;;1.83;75.64;99044.78;2855763;83;21165;-63
2021/01/30 18:37:33;;;;;;;19.32;12.18;;;;;;;1.78;76.04;99040.32;2855728;83;21121;-67
2021/01/30 18:41:44;;;;;;;24.52;14.83;;;;;;;1.76;75.87;99045.65;2854194;83;21610;-65
2021/01/30 18:45:52;;;;;;;79.47;42.10;;;;;;;1.55;75.85;99049.21;2848365;83;21940;-63
2021/01/30 18:50:00;;;;;;;71.17;46.65;;;;;;;1.47;76.86;99054.94;2848140;83;21191;-65
2021/01/30 18:54:13;;;;;;;58.20;32.08;;;;;;;1.37;76.96;99040.73;2848525;83;21169;-64
2021/01/30 18:58:23;;;;;;;25.43;16.55;;;;;;;1.37;76.96;99040.73;2894656;82;21193;-63
2021/01/30 19:02:26;;;;;;;38.45;26.62;;;;;;;1.43;76.35;99056.09;2894569;82;21113;-64
2021/01/30 19:06:30;;;;;;;33.58;21.75;;;;;;;1.30;75.75;99051.23;2894701;82;21180;-64
2021/01/30 19:10:34;;;;;;;17.07;12.40;;;;;;;1.11;75.74;99041.92;2894775;81;21140;-65
2021/01/30 19:14:37;;;;;;;19.17;12.25;;;;;;;0.90;76.08;99037.08;2894878;82;21179;-66
2021/01/30 19:18:40;;;;;;;18.35;12.13;;;;;;;0.70;75.41;99036.53;2823037;84;21509;-67
2021/01/30 19:22:43;;;;;;;15.80;11.22;;;;;;;0.22;76.83;99044.61;2800883;84;21712;-64
2021/01/30 19:26:46;;;;;;;17.98;11.80;;;;;;;0.22;76.83;99044.61;2822867;84;21125;-64
2021/01/30 19:30:49;;;;;;;26.33;15.50;;;;;;;0.10;77.75;99042.73;2822688;84;21133;-65